• Join FlightAware (Why Join?)
  • Login
  • US Flag 
07:41AM EDT


 

Airport Tracker/Info


-or-


 

Live Flight TrackerFlight Track Log ✈ SWA407 ✈ 01-May-2013 ✈ KMCO - KATL

Flight Track Log - Related Links

Times and Time Zones

All times are in EDT time to prevent confusion due to time zone crossing. See the SWA407 flight status page for this flight to view local times or setup timezone preferences in your user account.

Time Position Orientation Groundspeed Altitude Reporting Facility
EDT Latitude Longitude Course Direction KTS MPH feet Rate Location/Type
02:58PM 28.4167 -81.3000 180° South 155 178 600  Level Orlando TRACON
02:59PM 28.4000 -81.3000 180° South 150 173 1,300 2,760 Climbing Orlando TRACON
03:00PM 28.3500 -81.2667 150° Southeast 212 244 4,500 3,240 Climbing Orlando TRACON
03:01PM 28.3833 -81.2167 53° Northeast 231 266 8,200 3,540 Climbing Orlando TRACON
03:02PM 28.4500 -81.2000 12° North 288 331 11,600 2,940 Climbing Orlando TRACON
03:03PM 28.5836 -81.2258 350° North 340 391 16,000 2,820 Climbing Jacksonville Center
03:04PM 28.6758 -81.2550 344° North 340 391 19,200 3,060 Climbing Jacksonville Center
03:05PM 28.7700 -81.2867 344° North 340 391 22,200 2,280 Climbing Jacksonville Center
03:06PM 28.8750 -81.3206 344° North 360 414 23,800 2,040 Climbing Jacksonville Center
03:07PM 28.9858 -81.3519 346° North 386 444 26,300 2,340 Climbing Jacksonville Center
03:08PM 29.0992 -81.3906 343° North 411 473 28,500 2,340 Climbing Jacksonville Center
03:09PM 29.2250 -81.4436 340° North 430 495 31,000 2,460 Climbing Jacksonville Center
03:10PM 29.3403 -81.4869 342° North 430 495 33,500 1,980 Climbing Jacksonville Center
03:11PM 29.4514 -81.5331 340° North 430 495 35,000 720 Climbing Jacksonville Center
03:12PM 29.5644 -81.5794 340° North 430 495 35,000  Level Jacksonville Center
03:13PM 29.6797 -81.6256 341° North 430 495 35,000  Level Jacksonville Center
03:14PM 29.7931 -81.6719 340° North 430 495 35,000  Level Jacksonville Center
03:15PM 29.9083 -81.7161 342° North 430 495 35,000  Level Jacksonville Center
03:16PM 30.0214 -81.7578 342° North 430 495 35,000  Level Jacksonville Center
03:17PM 30.1344 -81.8069 339° North 430 495 35,000  Level Jacksonville Center
03:18PM 30.2497 -81.8539 341° North 430 495 35,000  Level Jacksonville Center
03:19PM 30.3628 -81.9006 340° North 430 495 35,000  Level Jacksonville Center
03:20PM 30.4758 -81.9453 341° North 438 504 35,000  Level Jacksonville Center
03:21PM 30.5808 -81.9950 338° Northwest 429 494 35,000  Level Jacksonville Center
03:22PM 30.6917 -82.0397 341° North 429 494 35,000  Level Jacksonville Center
03:23PM 30.8047 -82.0872 340° North 434 499 35,000  Level Jacksonville Center
03:24PM 30.9178 -82.1347 340° North 428 493 35,000  Level Jacksonville Center
03:25PM 31.0308 -82.1797 341° North 433 498 35,000  Level Jacksonville Center
03:26PM 31.1458 -82.2300 339° North 433 498 35,000  Level Jacksonville Center
03:27PM 31.2569 -82.2778 340° North 433 498 35,000  Level Jacksonville Center
03:28PM 31.3719 -82.3281 340° North 433 498 35,000  Level Jacksonville Center
03:29PM 31.4869 -82.3689 343° North 428 493 35,000  Level Jacksonville Center
03:30PM 31.6019 -82.4169 340° North 428 493 35,000  Level Jacksonville Center
03:33PM 31.8542 -82.5253 340° North 440 506 35,000  Level Atlanta Center
03:34PM 31.9653 -82.5750 339° North 433 498 35,000 -60 Level Atlanta Center
03:35PM 32.0725 -82.6319 336° Northwest 433 498 34,900 -600 Descending Atlanta Center
03:36PM 32.1633 -82.7239 319° Northwest 424 488 33,900 -1,020 Descending Atlanta Center
03:37PM 32.2539 -82.8181 319° Northwest 424 488 32,900 -1,020 Descending Atlanta Center
03:38PM 32.3467 -82.9103 320° Northwest 429 494 31,900 -960 Descending Atlanta Center
03:39PM 32.4372 -83.0053 318° Northwest 434 499 31,000 -900 Descending Atlanta Center
03:40PM 32.5300 -83.1003 319° Northwest 434 499 30,100 -960 Descending Atlanta Center
03:41PM 32.6267 -83.2003 319° Northwest 445 512 29,100 -1,200 Descending Atlanta Center
03:42PM 32.7192 -83.2956 319° Northwest 445 512 27,700 -1,920 Descending Atlanta Center
03:43PM 32.8031 -83.3789 320° Northwest 435 501 25,300 -2,460 Descending Atlanta Center
03:44PM 32.8892 -83.4722 318° Northwest 432 497 22,800 -2,700 Descending Atlanta Center
03:45PM 32.9939 -83.5806 319° Northwest 425 489 20,000 -2,340 Descending Atlanta Center
03:46PM 33.0672 -83.6522 321° Northwest 410 472 18,200 -2,160 Descending Atlanta Center
03:46PM 33.1333 -83.7167 321° Northwest 381 438 16,600 -2,520 Descending Atlanta TRACON
03:47PM 33.2000 -83.7833 320° Northwest 379 436 14,500 -1,680 Descending Atlanta TRACON
03:48PM 33.2667 -83.8833 309° West 366 421 13,300 -960 Descending Atlanta TRACON
03:49PM 33.2869 -83.9169 306° West 372 428 13,100 -900 Descending Atlanta Center
03:50PM 33.3497 -84.0089 309° West 360 414 12,100 -600 Descending Atlanta Center
03:51PM 33.4081 -84.0986 308° West 353 406 12,000 -120 Descending Atlanta Center
03:51PM 33.4500 -84.1500 314° West 288 331 12,000  Level Atlanta TRACON
03:52PM 33.5000 -84.2333 306° West 267 307 12,000 -120 Level Atlanta TRACON
03:53PM 33.5333 -84.3000 301° West 264 304 11,800 -660 Descending Atlanta TRACON
03:54PM 33.5500 -84.3833 284° West 263 303 10,700 -1,080 Descending Atlanta TRACON
03:55PM 33.5500 -84.4667 270° West 257 296 9,700 -1,620 Descending Atlanta TRACON
03:56PM 33.5500 -84.5500 270° West 245 282 7,500 -2,100 Descending Atlanta TRACON
03:57PM 33.5500 -84.6333 270° West 253 291 5,500 -1,980 Descending Atlanta TRACON
03:58PM 33.5667 -84.7000 287° West 258 297 3,600 -1,260 Descending Atlanta TRACON
03:59PM 33.6000 -84.6833 23° Northeast 194 223 3,000 -300 Descending Atlanta TRACON
04:00PM 33.6167 -84.6333 68° East 165 190 3,000 -60 Level Atlanta TRACON
04:01PM 33.6167 -84.5833 90° East 163 188 2,900 -360 Descending Atlanta TRACON
04:02PM 33.6167 -84.5167 90° East 166 191 2,300 -660 Descending Atlanta TRACON
04:03PM 33.6167 -84.4833 90° East 125 144 1,600 -720 Descending Atlanta TRACON
04:05PM 33.6367 -84.4279 64° Northeast  Level Estimated
04:12PM 33.6367 -84.4279 64° Northeast  Level Estimated